Time;durP1;ratioP1;P1;durP2;ratioP2;P2;SDS_P1;SDS_P2;PMS_P1;PMS_P2;Temp;Humidity;BMP_temperature;BMP_pressure;BME280_temperature;BME280_humidity;BME280_pressure;Samples;Min_cycle;Max_cycle;Signal;HPM_P1;HPM_P2
2021/04/01 00:01:33;;;;;;;5.57;3.37;;;12.90;88.70;;;;;;4992266;28;20635;-67
2021/04/01 00:03:59;;;;;;;8.20;3.53;;;12.80;89.40;;;;;;4992187;28;20208;-66
2021/04/01 00:06:24;;;;;;;7.90;3.23;;;12.70;90.30;;;;;;4992228;28;20188;-67
2021/04/01 00:08:50;;;;;;;8.97;3.47;;;13.00;91.20;;;;;;4974795;28;20890;-67
2021/04/01 00:11:16;;;;;;;7.57;3.77;;;13.10;90.80;;;;;;4992068;28;20185;-66
2021/04/01 00:13:42;;;;;;;8.60;3.33;;;13.10;90.70;;;;;;4992050;28;20185;-67
2021/04/01 00:16:08;;;;;;;6.40;3.57;;;13.10;90.50;;;;;;4992042;28;20184;-66
2021/04/01 00:18:33;;;;;;;10.00;3.10;;;13.10;89.70;;;;;;4992202;28;20220;-67
2021/04/01 00:20:59;;;;;;;6.53;3.20;;;13.10;88.50;;;;;;4995977;28;20662;-67
2021/04/01 00:23:25;;;;;;;9.00;3.47;;;13.20;88.40;;;;;;5009702;28;20222;-65
2021/04/01 00:25:50;;;;;;;7.37;3.80;;;13.10;88.50;;;;;;4991977;28;20235;-66
2021/04/01 00:28:16;;;;;;;6.93;3.67;;;13.20;87.60;;;;;;4991936;28;20532;-66
2021/04/01 00:30:42;;;;;;;7.80;3.57;;;13.10;89.80;;;;;;5009815;28;20176;-66
2021/04/01 00:33:08;;;;;;;7.17;3.30;;;13.00;91.20;;;;;;5011615;28;20189;-67
2021/04/01 00:35:33;;;;;;;4.27;3.00;;;12.80;88.10;;;;;;5008715;28;20542;-66
2021/04/01 00:37:59;;;;;;;7.60;3.67;;;12.70;88.20;;;;;;5011197;28;20245;-66
2021/04/01 00:40:26;;;;;;;6.10;3.77;;;12.70;87.50;;;;;;4993985;28;20191;-69
2021/04/01 00:42:52;;;;;;;7.53;3.97;;;12.70;89.60;;;;;;5011104;28;20208;-70
2021/04/01 00:45:19;;;;;;;6.00;3.40;;;12.60;90.00;;;;;;4999500;28;20362;-67
2021/04/01 00:47:47;;;;;;;7.20;3.40;;;12.60;90.70;;;;;;4997247;28;20177;-68
2021/04/01 00:50:19;;;;;;;6.27;3.37;;;12.60;92.00;;;;;;4995349;28;20288;-66
2021/04/01 00:52:44;;;;;;;6.20;3.00;;;12.60;92.10;;;;;;4996812;28;20631;-69
2021/04/01 00:55:12;;;;;;;5.10;3.40;;;12.60;92.50;;;;;;5011971;28;20188;-67
2021/04/01 00:57:39;;;;;;;6.47;3.10;;;12.50;91.10;;;;;;5015514;28;20259;-68
2021/04/01 01:00:09;;;;;;;7.97;3.87;;;12.50;92.00;;;;;;5026971;28;20219;-67
2021/04/01 01:02:35;;;;;;;7.57;3.60;;;12.40;92.10;;;;;;5015532;28;20181;-66
2021/04/01 01:05:02;;;;;;;6.50;3.13;;;12.50;92.30;;;;;;5014917;28;20208;-69
2021/04/01 01:07:27;;;;;;;6.37;3.43;;;12.50;91.80;;;;;;5015037;28;20246;-68
2021/04/01 01:09:53;;;;;;;5.13;3.37;;;12.50;91.10;;;;;;5015126;28;20184;-69
2021/04/01 01:12:19;;;;;;;7.20;3.80;;;12.50;91.10;;;;;;5030835;28;20203;-69
2021/04/01 01:14:44;;;;;;;10.60;3.40;;;12.30;91.30;;;;;;5034655;28;20187;-68
2021/04/01 01:17:13;;;;;;;6.73;3.50;;;12.40;92.80;;;;;;5034738;28;20172;-69
2021/04/01 01:19:40;;;;;;;7.53;3.67;;;12.30;91.80;;;;;;5019574;28;21233;-67
2021/04/01 01:22:06;;;;;;;8.93;3.60;;;12.20;91.50;;;;;;5014939;28;20188;-67
2021/04/01 01:24:33;;;;;;;6.47;3.30;;;12.10;92.80;;;;;;5014715;28;20327;-68
2021/04/01 01:27:01;;;;;;;7.90;3.37;;;12.00;93.40;;;;;;5014993;28;20179;-69
2021/04/01 01:29:27;;;;;;;7.40;3.13;;;12.00;94.10;;;;;;5006458;28;20180;-68
2021/04/01 01:31:52;;;;;;;5.83;3.00;;;12.10;94.10;;;;;;5014726;28;20203;-69
2021/04/01 01:34:19;;;;;;;4.13;3.10;;;12.00;93.80;;;;;;5014603;28;20184;-67
2021/04/01 01:36:45;;;;;;;9.03;2.97;;;12.10;93.40;;;;;;5014564;28;20195;-67
2021/04/01 01:39:10;;;;;;;6.77;3.40;;;12.10;93.60;;;;;;5014808;28;20185;-69
2021/04/01 01:41:36;;;;;;;6.03;3.40;;;12.00;93.70;;;;;;5014440;28;20643;-68
2021/04/01 01:44:02;;;;;;;8.13;3.20;;;12.00;93.30;;;;;;5014184;28;20662;-67
2021/04/01 01:46:28;;;;;;;9.07;3.10;;;12.00;94.10;;;;;;5014383;28;20191;-69
2021/04/01 01:48:58;;;;;;;8.23;3.00;;;11.90;95.00;;;;;;5014293;28;20200;-68
2021/04/01 01:51:25;;;;;;;4.23;2.77;;;12.10;95.80;;;;;;5019678;28;20696;-67
2021/04/01 01:53:51;;;;;;;5.40;3.30;;;12.10;95.40;;;;;;5033916;28;20195;-68
2021/04/01 01:56:21;;;;;;;7.03;3.20;;;12.10;95.70;;;;;;5021771;28;20650;-68
2021/04/01 01:58:48;;;;;;;4.47;2.93;;;12.10;95.70;;;;;;5024684;28;20188;-67
2021/04/01 02:01:16;;;;;;;6.50;3.00;;;12.00;95.80;;;;;;5033881;28;20187;-68
2021/04/01 02:03:41;;;;;;;5.47;2.80;;;12.00;96.10;;;;;;5014639;28;20239;-67
2021/04/01 02:06:11;;;;;;;7.87;3.30;;;12.00;96.80;;;;;;5033531;28;20267;-68
2021/04/01 02:08:36;;;;;;;5.37;3.50;;;12.00;95.70;;;;;;5033172;28;20183;-69
2021/04/01 02:11:02;;;;;;;5.93;3.10;;;11.90;95.90;;;;;;5027789;28;20180;-69
2021/04/01 02:13:28;;;;;;;6.23;3.10;;;11.90;96.70;;;;;;5032393;28;20180;-67
2021/04/01 02:15:56;;;;;;;6.80;3.20;;;11.90;96.50;;;;;;5033740;28;20212;-67
2021/04/01 02:18:24;;;;;;;5.13;3.23;;;11.70;97.80;;;;;;5029379;28;20207;-67
2021/04/01 02:20:52;;;;;;;3.90;3.30;;;11.70;97.40;;;;;;5015689;28;20638;-68
2021/04/01 02:23:24;;;;;;;7.20;3.37;;;11.70;98.00;;;;;;5033129;28;20267;-68
2021/04/01 02:25:51;;;;;;;7.77;4.10;;;11.70;97.30;;;;;;5017348;28;20725;-68
2021/04/01 02:28:20;;;;;;;10.27;3.40;;;11.70;96.90;;;;;;5033031;28;20529;-67
2021/04/01 02:30:48;;;;;;;7.90;3.10;;;11.70;97.30;;;;;;5015493;28;20172;-68
2021/04/01 02:33:16;;;;;;;7.20;4.23;;;11.70;97.50;;;;;;5013384;28;20188;-68
2021/04/01 02:35:42;;;;;;;5.60;2.97;;;11.80;97.50;;;;;;5013470;28;20177;-67
2021/04/01 02:38:08;;;;;;;7.73;3.37;;;11.80;97.70;;;;;;5027825;28;20186;-68
2021/04/01 02:40:35;;;;;;;10.17;3.47;;;11.80;97.10;;;;;;5032978;28;20685;-68
2021/04/01 02:43:01;;;;;;;4.63;3.30;;;11.70;96.50;;;;;;5032990;28;20172;-68
2021/04/01 02:45:27;;;;;;;7.20;3.20;;;11.60;96.50;;;;;;5032936;28;20257;-68
2021/04/01 02:47:52;;;;;;;4.27;3.00;;;11.50;97.00;;;;;;5032770;28;20176;-68
2021/04/01 02:50:19;;;;;;;7.60;3.40;;;11.40;97.20;;;;;;5032920;28;20633;-67
2021/04/01 02:52:45;;;;;;;7.17;3.30;;;11.30;97.40;;;;;;5032707;28;20766;-67
2021/04/01 02:55:12;;;;;;;7.33;3.37;;;11.20;97.40;;;;;;5017090;28;20263;-67
2021/04/01 02:57:38;;;;;;;4.23;2.87;;;11.10;98.40;;;;;;5032080;28;20527;-68
2021/04/01 03:00:09;;;;;;;7.53;3.10;;;11.10;98.50;;;;;;5021176;28;20757;-69
2021/04/01 03:02:37;;;;;;;4.83;3.13;;;11.30;98.60;;;;;;4995318;28;20191;-69
2021/04/01 03:05:06;;;;;;;8.77;3.60;;;11.40;98.20;;;;;;5012590;28;20259;-67
2021/04/01 03:07:32;;;;;;;6.73;3.30;;;11.40;97.70;;;;;;5013021;28;20522;-67
2021/04/01 03:09:57;;;;;;;14.80;3.53;;;11.60;97.20;;;;;;5012615;28;20639;-66
2021/04/01 03:12:23;;;;;;;12.63;3.87;;;11.60;97.20;;;;;;5012677;28;20177;-68
2021/04/01 03:14:49;;;;;;;4.67;3.10;;;11.60;97.60;;;;;;5012550;28;20184;-66
2021/04/01 03:17:14;;;;;;;9.50;3.20;;;11.60;97.70;;;;;;5012627;28;20231;-68
2021/04/01 03:19:40;;;;;;;11.83;3.67;;;11.40;97.90;;;;;;5011542;28;20181;-66
2021/04/01 03:22:05;;;;;;;6.67;3.47;;;11.30;98.90;;;;;;5012426;28;20183;-68
2021/04/01 03:24:31;;;;;;;7.97;3.30;;;11.30;97.70;;;;;;5012369;28;20275;-67
2021/04/01 03:26:56;;;;;;;6.70;3.43;;;11.30;97.70;;;;;;5012600;28;20169;-69
2021/04/01 03:29:22;;;;;;;4.93;3.40;;;11.30;97.80;;;;;;5012176;28;20230;-67
2021/04/01 03:31:48;;;;;;;6.67;3.43;;;11.20;98.60;;;;;;4994557;28;20577;-66
2021/04/01 03:34:13;;;;;;;9.17;3.10;;;11.10;99.50;;;;;;5012633;28;20225;-67
2021/04/01 03:36:39;;;;;;;5.93;3.10;;;11.10;99.70;;;;;;5012105;28;20230;-68
2021/04/01 03:39:23;;;;;;;7.63;3.53;;;11.10;99.60;;;;;;4800845;27;7703489;-68
2021/04/01 03:41:49;;;;;;;6.97;3.53;;;11.10;99.50;;;;;;5052540;28;20179;-68
2021/04/01 03:44:14;;;;;;;4.27;2.97;;;11.10;99.10;;;;;;5063600;28;20200;-69
2021/04/01 03:46:40;;;;;;;7.33;3.37;;;11.10;99.90;;;;;;5068270;28;20209;-66
2021/04/01 03:49:06;;;;;;;5.77;3.33;;;11.10;99.90;;;;;;5066982;28;20683;-66
2021/04/01 03:51:31;;;;;;;4.87;3.13;;;11.10;99.30;;;;;;5062819;28;20220;-66
2021/04/01 03:53:57;;;;;;;9.70;3.80;;;11.10;97.50;;;;;;5057999;28;20175;-66
2021/04/01 03:56:23;;;;;;;6.17;3.30;;;11.10;97.80;;;;;;5048293;28;20171;-66
2021/04/01 04:04:42;;;;;;;11.50;3.37;;;11.30;97.50;;;;;;5067535;28;20247;-66
2021/04/01 04:07:29;;;;;;;7.67;3.00;;;11.40;97.50;;;;;;5067742;28;20174;-66
2021/04/01 04:15:12;;;;;;;6.90;3.50;;;11.50;97.50;;;;;;5047684;28;20605;-67
2021/04/01 04:17:38;;;;;;;4.77;3.13;;;11.50;97.10;;;;;;5047773;28;20618;-68
2021/04/01 04:20:05;;;;;;;5.93;3.30;;;11.40;97.50;;;;;;5066886;28;20206;-66
2021/04/01 04:22:31;;;;;;;5.43;3.67;;;11.30;98.40;;;;;;5067719;28;20591;-67
2021/04/01 04:24:57;;;;;;;6.87;3.50;;;11.30;98.90;;;;;;5067547;28;20214;-68
2021/04/01 04:30:00;;;;;;;10.07;3.83;;;11.40;98.40;;;;;;5067463;28;20192;-68
2021/04/01 04:32:30;;;;;;;10.80;3.77;;;11.60;97.70;;;;;;5067317;28;20550;-68
2021/04/01 04:34:56;;;;;;;8.00;3.77;;;11.60;96.80;;;;;;5067394;28;20609;-68
2021/04/01 04:37:22;;;;;;;6.10;3.90;;;11.50;96.70;;;;;;5066316;28;20222;-66
2021/04/01 04:39:48;;;;;;;6.53;4.10;;;11.50;96.40;;;;;;5067357;28;20196;-69
2021/04/01 04:42:14;;;;;;;9.27;3.90;;;11.40;96.20;;;;;;5066998;28;20182;-67
2021/04/01 04:44:40;;;;;;;11.77;4.67;;;11.30;97.20;;;;;;5067039;28;20293;-68
2021/04/01 04:47:06;;;;;;;9.07;4.00;;;11.20;97.40;;;;;;5066985;28;20182;-67
2021/04/01 04:49:31;;;;;;;8.70;3.93;;;11.10;98.30;;;;;;5059024;28;20220;-67
2021/04/01 04:51:58;;;;;;;8.87;3.87;;;11.10;99.90;;;;;;5053731;28;20481;-68
2021/04/01 04:54:23;;;;;;;7.80;4.30;;;11.20;99.30;;;;;;5049567;28;20184;-66
2021/04/01 04:56:51;;;;;;;5.50;3.77;;;11.20;99.50;;;;;;5033740;28;20341;-69
2021/04/01 05:07:04;;;;;;;13.70;4.87;;;10.90;99.50;;;;;;5053744;28;20209;-66
2021/04/01 05:09:30;;;;;;;9.13;4.30;;;11.00;99.90;;;;;;5053443;28;20178;-68
2021/04/01 05:11:55;;;;;;;10.00;4.60;;;11.10;99.90;;;;;;5038580;28;20570;-67
2021/04/01 05:14:21;;;;;;;5.70;4.10;;;11.10;99.20;;;;;;5032304;28;20175;-66
2021/04/01 05:16:47;;;;;;;8.10;4.67;;;11.10;99.70;;;;;;5033797;28;20183;-67
2021/04/01 05:19:13;;;;;;;8.63;3.93;;;11.00;99.10;;;;;;5039667;28;20660;-67
2021/04/01 05:24:17;;;;;;;12.13;4.73;;;11.00;98.60;;;;;;5042360;28;20172;-67
2021/04/01 05:29:14;;;;;;;9.93;4.50;;;10.90;99.90;;;;;;5033196;28;20176;-66
2021/04/01 05:31:40;;;;;;;7.57;5.10;;;11.00;99.90;;;;;;5031745;28;20411;-64
2021/04/01 05:34:07;;;;;;;9.67;4.73;;;10.90;99.90;;;;;;5041293;28;20715;-65
2021/04/01 05:36:36;;;;;;;8.93;4.47;;;10.90;99.90;;;;;;5052669;28;20418;-67
2021/04/01 05:39:03;;;;;;;14.17;5.83;;;10.90;99.90;;;;;;5051746;28;20461;-69
2021/04/01 05:41:30;;;;;;;16.40;6.10;;;11.00;99.90;;;;;;5031437;28;20510;-66
2021/04/01 05:46:29;;;;;;;8.40;5.03;;;11.10;99.90;;;;;;5049203;28;20178;-66
2021/04/01 05:51:42;;;;;;;8.13;5.40;;;11.20;99.90;;;;;;5034903;28;20186;-69
2021/04/01 06:05:39;;;;;;;9.23;4.47;;;11.30;99.00;;;;;;5048132;28;20177;-66
2021/04/01 06:08:09;;;;;;;11.03;4.70;;;11.40;99.50;;;;;;5037452;28;20258;-69
2021/04/01 06:10:36;;;;;;;8.87;4.73;;;11.60;99.00;;;;;;5047865;28;20236;-68
2021/04/01 06:13:13;;;;;;;8.87;4.60;;;11.80;98.40;;;;;;5041162;28;20183;-66
2021/04/01 06:15:43;;;;;;;10.40;4.73;;;12.00;97.90;;;;;;5040376;28;20175;-67
2021/04/01 06:18:11;;;;;;;12.27;4.87;;;12.10;97.10;;;;;;5034930;28;20207;-68
2021/04/01 06:20:39;;;;;;;9.70;4.30;;;12.20;96.80;;;;;;5048310;28;20520;-68
2021/04/01 06:23:04;;;;;;;7.13;4.73;;;12.30;96.60;;;;;;5048395;28;20530;-69
2021/04/01 06:25:36;;;;;;;10.40;4.70;;;12.50;95.70;;;;;;5032960;28;20172;-68
2021/04/01 06:28:07;;;;;;;10.67;4.87;;;12.70;95.60;;;;;;5051623;28;20253;-68
2021/04/01 06:30:46;;;;;;;8.13;4.50;;;12.80;95.30;;;;;;5033877;28;20532;-67
2021/04/01 06:33:13;;;;;;;10.40;5.00;;;12.90;95.20;;;;;;5051772;28;20177;-67
2021/04/01 06:35:50;;;;;;;6.73;4.63;;;13.00;97.20;;;;;;5051599;28;20613;-67
2021/04/01 06:40:58;;;;;;;10.63;4.60;;;13.30;96.50;;;;;;5037053;28;20241;-67
2021/04/01 06:43:32;;;;;;;13.87;5.03;;;13.30;96.80;;;;;;5030677;28;20211;-67
2021/04/01 06:46:00;;;;;;;12.30;4.40;;;13.50;96.20;;;;;;5031726;28;20195;-68
2021/04/01 06:51:21;;;;;;;8.87;4.40;;;13.70;96.60;;;;;;5042958;28;20602;-68
2021/04/01 06:54:03;;;;;;;9.60;4.33;;;14.00;95.80;;;;;;5031393;28;20273;-68
2021/04/01 07:04:37;;;;;;;14.77;5.20;;;14.50;96.60;;;;;;5030997;28;20171;-68
2021/04/01 07:07:05;;;;;;;10.43;5.20;;;14.70;95.80;;;;;;5045179;28;20584;-66
2021/04/01 07:09:48;;;;;;;8.27;5.13;;;14.80;95.10;;;;;;5047859;28;20179;-65
2021/04/01 07:12:17;;;;;;;7.03;5.00;;;14.90;95.00;;;;;;5050996;28;20171;-68
2021/04/01 07:14:48;;;;;;;10.67;4.77;;;15.00;94.20;;;;;;5046606;28;20186;-66
2021/04/01 07:17:30;;;;;;;10.63;5.37;;;15.10;94.80;;;;;;5033036;28;20199;-66
2021/04/01 07:47:20;;;;;;;8.43;3.90;;;16.70;88.90;;;;;;5051129;28;20177;-66
2021/04/01 07:49:48;;;;;;;6.97;3.93;;;16.70;89.10;;;;;;5050744;28;20179;-69
2021/04/01 07:52:15;;;;;;;6.07;3.80;;;16.70;88.00;;;;;;5050776;28;20163;-67
2021/04/01 07:55:08;;;;;;;5.87;3.77;;;16.70;87.00;;;;;;5050359;28;20168;-68
2021/04/01 08:05:23;;;;;;;5.97;3.50;;;16.90;85.40;;;;;;5050641;28;20216;-67
2021/04/01 08:07:54;;;;;;;7.47;3.60;;;17.00;84.20;;;;;;5049923;28;20175;-65
2021/04/01 08:10:24;;;;;;;6.07;3.70;;;17.20;82.50;;;;;;5050653;28;20171;-68
2021/04/01 08:12:56;;;;;;;9.60;3.60;;;17.40;80.80;;;;;;5050576;28;20175;-68
2021/04/01 08:15:25;;;;;;;6.83;3.97;;;17.50;81.30;;;;;;5050568;28;20267;-67
2021/04/01 08:20:42;;;;;;;8.40;4.20;;;17.70;81.70;;;;;;5019445;28;20536;-69
2021/04/01 08:23:12;;;;;;;7.27;3.63;;;17.90;79.40;;;;;;5049786;28;20178;-67
2021/04/01 08:35:55;;;;;;;6.27;3.67;;;18.60;68.20;;;;;;5053842;28;20606;-68
2021/04/01 08:38:21;;;;;;;6.63;3.37;;;18.70;67.90;;;;;;5053403;28;20261;-68
2021/04/01 08:40:48;;;;;;;8.80;2.90;;;18.90;68.40;;;;;;5052361;28;20183;-67
2021/04/01 08:43:34;;;;;;;7.60;3.20;;;19.00;67.20;;;;;;5053521;28;20221;-68
2021/04/01 08:46:45;;;;;;;10.10;4.13;;;19.00;65.30;;;;;;5053791;28;20186;-67
2021/04/01 08:49:23;;;;;;;5.87;3.57;;;19.00;64.60;;;;;;4972389;28;20297;-67
2021/04/01 08:52:12;;;;;;;6.53;3.30;;;18.90;65.80;;;;;;4972723;28;20228;-69
2021/04/01 08:54:59;;;;;;;8.27;3.60;;;19.10;66.00;;;;;;4972591;28;20236;-67
2021/04/01 08:57:57;;;;;;;4.97;3.27;;;19.10;64.20;;;;;;4972201;28;20201;-66
2021/04/01 09:00:26;;;;;;;9.17;3.70;;;19.20;64.10;;;;;;4970699;28;20189;-68
2021/04/01 09:02:54;;;;;;;6.87;3.13;;;19.40;64.40;;;;;;4972210;28;20178;-67
2021/04/01 09:05:20;;;;;;;5.83;3.40;;;19.50;64.20;;;;;;4972255;28;20186;-68
2021/04/01 09:07:57;;;;;;;5.03;3.03;;;19.60;63.00;;;;;;4972235;28;20622;-67
2021/04/01 09:10:44;;;;;;;7.97;3.60;;;19.80;63.60;;;;;;4972021;28;20190;-68
2021/04/01 09:13:16;;;;;;;8.13;3.23;;;19.90;63.20;;;;;;4971663;28;20249;-69
2021/04/01 09:15:49;;;;;;;13.13;3.97;;;19.90;62.80;;;;;;4972492;28;20189;-67
2021/04/01 09:18:23;;;;;;;7.40;3.83;;;19.80;63.00;;;;;;4972014;28;20218;-67
2021/04/01 09:20:53;;;;;;;6.50;3.47;;;19.80;65.30;;;;;;5042167;28;21467;-68
2021/04/01 09:23:40;;;;;;;6.83;3.30;;;19.90;64.20;;;;;;5053019;28;20320;-68
2021/04/01 09:26:08;;;;;;;8.20;3.30;;;20.00;63.80;;;;;;5053358;28;20270;-67
2021/04/01 09:28:39;;;;;;;6.10;3.50;;;20.20;62.80;;;;;;5053295;28;20172;-68
2021/04/01 09:31:06;;;;;;;7.07;3.47;;;20.30;61.70;;;;;;5052561;28;20181;-67
2021/04/01 09:33:34;;;;;;;6.50;3.40;;;20.40;60.60;;;;;;5053135;28;20171;-68
2021/04/01 09:36:08;;;;;;;7.63;3.30;;;20.50;59.80;;;;;;5053056;28;20266;-66
2021/04/01 09:38:42;;;;;;;7.90;3.50;;;20.50;59.80;;;;;;5052891;28;20301;-67
2021/04/01 09:41:08;;;;;;;5.90;3.50;;;20.40;59.70;;;;;;5052805;28;20258;-68
2021/04/01 09:43:34;;;;;;;4.30;3.20;;;20.50;60.20;;;;;;5053111;28;20190;-68
2021/04/01 09:46:12;;;;;;;7.30;3.40;;;20.60;59.90;;;;;;5052768;28;20254;-68
2021/04/01 09:48:42;;;;;;;7.20;3.67;;;20.60;59.80;;;;;;5053027;28;20532;-67
2021/04/01 09:51:21;;;;;;;8.37;3.40;;;20.60;58.70;;;;;;5052893;28;20521;-67
2021/04/01 09:53:54;;;;;;;4.87;3.10;;;20.80;58.70;;;;;;5052619;28;20167;-68
2021/04/01 09:56:27;;;;;;;7.70;3.47;;;20.90;57.80;;;;;;5052410;28;20179;-67
2021/04/01 09:58:54;;;;;;;8.97;3.87;;;21.00;57.40;;;;;;5052345;28;20608;-68
2021/04/01 10:04:07;;;;;;;6.80;3.40;;;21.20;58.10;;;;;;5051985;28;20175;-68
2021/04/01 10:06:45;;;;;;;8.73;3.43;;;21.20;56.60;;;;;;5051364;28;20174;-69
2021/04/01 10:09:20;;;;;;;6.23;3.53;;;21.30;56.80;;;;;;5051808;28;20613;-68
2021/04/01 10:12:00;;;;;;;9.33;3.27;;;21.40;56.00;;;;;;5051679;28;20178;-67
2021/04/01 10:14:27;;;;;;;9.73;3.03;;;21.40;55.70;;;;;;5051495;28;20252;-68
2021/04/01 10:16:58;;;;;;;5.10;3.53;;;21.40;55.80;;;;;;5051576;28;20183;-68
2021/04/01 10:19:31;;;;;;;11.50;3.60;;;21.40;55.40;;;;;;5051546;28;20175;-66
2021/04/01 10:21:57;;;;;;;7.97;3.60;;;21.50;55.40;;;;;;5051356;28;20167;-69
2021/04/01 10:24:36;;;;;;;7.63;3.50;;;21.70;54.80;;;;;;5051288;28;20248;-67
2021/04/01 10:27:09;;;;;;;7.13;3.30;;;21.80;54.50;;;;;;5051644;28;20175;-67
2021/04/01 10:32:13;;;;;;;7.47;3.50;;;22.20;52.30;;;;;;5051408;28;20589;-68
2021/04/01 10:34:51;;;;;;;6.10;3.33;;;22.20;51.70;;;;;;5051158;28;20195;-67
2021/04/01 10:37:19;;;;;;;9.97;3.43;;;22.20;52.10;;;;;;5051099;28;20178;-68
2021/04/01 10:39:45;;;;;;;6.60;3.37;;;22.30;52.10;;;;;;5050409;28;20218;-67
2021/04/01 10:42:13;;;;;;;7.07;3.63;;;22.40;51.50;;;;;;5051393;28;20630;-67
2021/04/01 10:44:40;;;;;;;5.97;3.10;;;22.40;51.70;;;;;;5050851;28;20206;-67
2021/04/01 10:47:07;;;;;;;5.80;3.57;;;22.40;50.90;;;;;;5050627;28;20182;-68
2021/04/01 10:49:36;;;;;;;7.40;3.57;;;22.40;50.90;;;;;;5050937;28;20691;-66
2021/04/01 10:52:08;;;;;;;8.10;3.37;;;22.50;50.70;;;;;;5050957;28;20183;-67
2021/04/01 10:54:35;;;;;;;7.73;3.80;;;22.50;49.90;;;;;;5051170;28;20190;-67
2021/04/01 10:57:02;;;;;;;6.40;3.10;;;22.50;50.70;;;;;;5032684;28;20208;-66
2021/04/01 10:59:46;;;;;;;6.37;2.93;;;22.50;49.80;;;;;;5050757;28;20190;-67
2021/04/01 11:02:32;;;;;;;6.30;2.90;;;22.70;49.90;;;;;;5050647;28;20722;-67
2021/04/01 11:05:10;;;;;;;5.97;3.60;;;22.90;49.50;;;;;;5049550;28;20209;-68
2021/04/01 11:07:45;;;;;;;6.83;3.60;;;23.00;49.10;;;;;;5050462;28;20186;-67
2021/04/01 11:10:21;;;;;;;6.43;3.40;;;23.00;49.10;;;;;;5033384;28;20181;-67
2021/04/01 11:12:51;;;;;;;6.73;3.50;;;23.20;48.70;;;;;;5050486;28;20197;-67
2021/04/01 11:15:21;;;;;;;7.10;3.10;;;23.40;47.80;;;;;;5050784;28;20186;-66
2021/04/01 11:17:53;;;;;;;7.00;3.47;;;23.40;47.40;;;;;;5050632;28;20194;-66
2021/04/01 11:20:23;;;;;;;6.33;3.23;;;23.20;47.70;;;;;;5049207;28;20656;-67
2021/04/01 11:23:07;;;;;;;3.83;3.13;;;23.30;47.40;;;;;;5050388;28;20171;-66
2021/04/01 11:25:34;;;;;;;7.47;3.37;;;23.40;47.20;;;;;;5050501;28;20182;-68
2021/04/01 11:28:00;;;;;;;11.40;3.57;;;23.50;47.00;;;;;;5050488;28;20643;-66
2021/04/01 11:30:50;;;;;;;12.33;3.67;;;23.80;46.70;;;;;;5032338;28;20641;-68
2021/04/01 11:33:21;;;;;;;6.47;3.10;;;23.90;46.90;;;;;;5050241;28;20213;-67
2021/04/01 11:35:57;;;;;;;10.50;3.73;;;24.10;46.00;;;;;;5050232;28;20217;-67
2021/04/01 11:38:24;;;;;;;6.30;3.53;;;24.10;45.90;;;;;;5049707;28;20317;-68
2021/04/01 11:40:57;;;;;;;8.50;3.67;;;24.40;45.70;;;;;;5050452;28;20202;-67
2021/04/01 11:43:25;;;;;;;6.10;3.30;;;24.60;44.00;;;;;;5050147;28;20544;-66
2021/04/01 11:45:51;;;;;;;4.03;3.20;;;24.60;45.20;;;;;;5050265;28;20186;-68
2021/04/01 11:48:18;;;;;;;8.10;3.60;;;24.50;43.20;;;;;;5050017;28;20175;-69
2021/04/01 11:50:43;;;;;;;6.17;3.57;;;24.70;43.10;;;;;;5050254;28;20182;-66
2021/04/01 11:53:10;;;;;;;5.03;3.17;;;24.80;44.00;;;;;;5050125;28;20183;-66
2021/04/01 11:55:36;;;;;;;4.87;3.40;;;25.10;42.40;;;;;;5050100;28;20183;-68
2021/04/01 11:58:02;;;;;;;12.67;3.70;;;25.30;42.20;;;;;;5050292;28;20210;-68
2021/04/01 12:00:34;;;;;;;8.60;3.77;;;25.40;41.00;;;;;;5053133;28;20508;-66
2021/04/01 12:05:36;;;;;;;7.67;3.00;;;25.60;42.30;;;;;;5054099;28;20186;-66
2021/04/01 12:08:02;;;;;;;5.30;3.57;;;25.70;41.80;;;;;;5053974;28;20183;-69
2021/04/01 12:10:30;;;;;;;6.70;3.70;;;26.00;40.30;;;;;;5054255;28;20190;-66
2021/04/01 12:12:56;;;;;;;7.43;3.70;;;26.10;39.60;;;;;;5053713;28;20235;-67
2021/04/01 12:15:35;;;;;;;8.57;3.57;;;26.20;39.00;;;;;;5053830;28;20576;-70
2021/04/01 12:18:03;;;;;;;10.60;4.00;;;26.40;38.70;;;;;;5035727;28;20199;-69
2021/04/01 12:20:29;;;;;;;11.53;4.17;;;26.30;38.60;;;;;;5053222;28;20178;-68
2021/04/01 12:22:55;;;;;;;10.37;3.63;;;26.30;38.10;;;;;;5053707;28;20644;-67
2021/04/01 12:25:22;;;;;;;9.83;3.90;;;26.40;38.30;;;;;;5053781;28;20692;-67
2021/04/01 12:27:53;;;;;;;5.63;3.43;;;26.40;38.30;;;;;;5053246;28;20524;-66
2021/04/01 12:30:21;;;;;;;10.17;4.07;;;26.40;38.90;;;;;;5053570;28;20179;-68
2021/04/01 12:32:48;;;;;;;8.00;4.30;;;26.50;37.90;;;;;;5053656;28;20183;-69
2021/04/01 12:35:15;;;;;;;6.80;4.33;;;26.50;37.80;;;;;;5053376;28;20171;-68
2021/04/01 12:37:55;;;;;;;6.83;4.00;;;26.60;38.30;;;;;;5053642;28;20237;-68
2021/04/01 12:40:21;;;;;;;6.20;3.97;;;26.80;37.90;;;;;;5033345;28;20190;-67
2021/04/01 12:42:47;;;;;;;9.07;4.50;;;27.00;37.60;;;;;;5033612;28;20251;-69
2021/04/01 12:45:23;;;;;;;19.30;8.17;;;27.30;37.20;;;;;;5033281;28;20705;-67
2021/04/01 12:47:52;;;;;;;17.97;10.90;;;27.50;35.70;;;;;;5033665;28;20625;-70
2021/04/01 12:50:18;;;;;;;21.60;12.67;;;27.70;35.10;;;;;;5033486;28;20571;-67
2021/04/01 12:52:52;;;;;;;19.07;13.37;;;27.70;34.80;;;;;;5033309;28;20233;-67
2021/04/01 12:55:58;;;;;;;24.90;14.37;;;27.90;34.80;;;;;;5032585;28;20242;-70
2021/04/01 12:58:30;;;;;;;25.67;16.43;;;28.00;33.30;;;;;;5030993;28;20684;-69
2021/04/01 13:01:01;;;;;;;24.03;16.00;;;28.10;32.20;;;;;;5033348;28;20168;-66
2021/04/01 13:03:27;;;;;;;25.83;15.13;;;28.00;32.50;;;;;;5032897;28;20526;-69
2021/04/01 13:05:58;;;;;;;24.77;16.03;;;27.90;33.50;;;;;;5033246;28;20227;-68
2021/04/01 13:10:59;;;;;;;27.20;16.63;;;28.00;33.40;;;;;;5032607;28;20179;-67
2021/04/01 13:13:25;;;;;;;31.80;17.17;;;28.00;33.10;;;;;;5032787;28;20207;-68
2021/04/01 13:15:50;;;;;;;25.83;18.57;;;28.30;33.00;;;;;;5032933;28;20214;-68
2021/04/01 13:18:16;;;;;;;29.40;19.73;;;28.20;32.20;;;;;;5032710;28;20199;-67
2021/04/01 13:20:42;;;;;;;30.03;18.47;;;28.00;32.90;;;;;;5032584;28;20583;-66
2021/04/01 13:23:11;;;;;;;26.53;18.77;;;27.90;33.10;;;;;;5032734;28;20580;-66
2021/04/01 13:25:37;;;;;;;25.63;18.30;;;27.90;32.70;;;;;;5032888;28;20179;-66
2021/04/01 13:28:07;;;;;;;35.60;20.03;;;28.00;32.90;;;;;;5033026;28;20233;-69
2021/04/01 13:30:33;;;;;;;26.37;19.30;;;27.90;32.50;;;;;;5032581;28;20184;-67
2021/04/01 13:38:08;;;;;;;32.53;20.53;;;27.90;32.50;;;;;;5032430;28;20195;-66
2021/04/01 13:40:39;;;;;;;30.17;19.70;;;27.80;32.00;;;;;;5032786;28;20183;-67
2021/04/01 13:43:06;;;;;;;31.47;21.57;;;28.00;32.50;;;;;;5033090;28;20183;-69
2021/04/01 13:45:31;;;;;;;31.33;20.53;;;28.10;31.60;;;;;;5032946;28;20178;-68
2021/04/01 13:48:02;;;;;;;30.37;20.83;;;28.20;31.50;;;;;;5032420;28;20612;-67
2021/04/01 13:50:31;;;;;;;28.60;20.23;;;28.20;31.10;;;;;;5032660;28;20171;-66
2021/04/01 13:55:32;;;;;;;34.57;21.73;;;28.40;31.00;;;;;;5032438;28;20245;-67
2021/04/01 14:11:42;;;;;;;31.70;20.63;;;28.10;31.40;;;;;;5032019;28;20219;-67
2021/04/01 14:14:09;;;;;;;36.30;20.80;;;27.90;31.50;;;;;;5031672;28;20179;-68
2021/04/01 14:16:35;;;;;;;30.43;20.80;;;27.80;32.10;;;;;;5031739;28;20194;-66
2021/04/01 14:19:03;;;;;;;37.63;22.10;;;27.80;32.30;;;;;;5031794;28;20218;-66
2021/04/01 14:21:28;;;;;;;34.03;23.03;;;28.00;32.20;;;;;;5030866;28;20172;-68
2021/04/01 14:23:54;;;;;;;36.17;23.50;;;28.10;31.10;;;;;;5031447;28;20538;-67
2021/04/01 14:26:36;;;;;;;33.47;23.27;;;28.10;30.70;;;;;;5031534;28;20180;-67
2021/04/01 14:29:04;;;;;;;36.73;23.47;;;28.20;30.90;;;;;;5030656;28;20266;-66
2021/04/01 14:31:33;;;;;;;31.07;22.17;;;28.20;30.10;;;;;;5031193;28;20542;-67
2021/04/01 14:34:01;;;;;;;29.67;21.70;;;28.10;30.80;;;;;;5031518;28;21527;-67
2021/04/01 14:36:27;;;;;;;30.07;20.37;;;28.00;30.90;;;;;;5013691;28;20206;-67
2021/04/01 14:38:54;;;;;;;40.60;23.13;;;27.90;30.90;;;;;;5038620;28;20595;-66
2021/04/01 14:46:29;;;;;;;37.00;23.27;;;27.30;30.00;;;;;;5050829;28;20198;-67
2021/04/01 14:48:58;;;;;;;34.73;21.47;;;27.40;30.00;;;;;;5051307;28;20174;-66
2021/04/01 14:51:24;;;;;;;33.67;21.33;;;27.70;30.00;;;;;;5050959;28;20228;-67
2021/04/01 14:53:54;;;;;;;30.23;21.33;;;28.10;29.80;;;;;;5051073;28;20258;-68
2021/04/01 14:56:20;;;;;;;33.27;22.73;;;28.60;29.20;;;;;;5050812;28;20183;-68
2021/04/01 14:58:48;;;;;;;36.67;21.90;;;28.80;28.60;;;;;;5051017;28;20236;-67
2021/04/01 15:01:16;;;;;;;29.77;21.03;;;29.00;28.10;;;;;;5031214;28;20171;-67
2021/04/01 15:03:42;;;;;;;34.53;21.70;;;29.30;27.70;;;;;;5051220;28;20174;-67
2021/04/01 15:06:14;;;;;;;26.70;19.67;;;29.40;26.40;;;;;;5051069;28;20179;-68
2021/04/01 15:08:41;;;;;;;28.53;20.43;;;29.40;27.10;;;;;;5051099;28;20251;-67
2021/04/01 15:11:07;;;;;;;26.50;18.57;;;29.60;26.30;;;;;;5051292;28;20225;-67
2021/04/01 15:13:32;;;;;;;29.97;20.40;;;29.60;26.80;;;;;;5049865;28;20174;-67
2021/04/01 15:15:58;;;;;;;30.53;20.43;;;29.30;26.70;;;;;;5051086;28;20175;-67